Time;durP1;ratioP1;P1;durP2;ratioP2;P2;SDS_P1;SDS_P2;PMS_P1;PMS_P2;Temp;Humidity;BMP_temperature;BMP_pressure;BME280_temperature;BME280_humidity;BME280_pressure;Samples;Min_cycle;Max_cycle;Signal;HPM_P1;HPM_P2
2022/02/11 00:07:07;;;;;;;6.87;4.07;;;3.80;99.90;;;;;;5052542;28;21020;-83
2022/02/11 00:09:33;;;;;;;6.63;4.40;;;3.80;99.90;;;;;;5034565;28;20426;-82
2022/02/11 00:11:59;;;;;;;7.47;3.87;;;3.80;99.90;;;;;;5034364;28;20588;-82
2022/02/11 00:14:26;;;;;;;5.27;3.53;;;3.80;99.90;;;;;;5034517;28;20406;-83
2022/02/11 00:16:52;;;;;;;7.40;3.90;;;3.90;99.90;;;;;;5033980;28;20286;-83
2022/02/11 00:19:17;;;;;;;6.13;3.20;;;4.00;99.90;;;;;;5033964;28;20467;-83
2022/02/11 00:21:43;;;;;;;5.90;3.60;;;3.90;99.90;;;;;;5058558;28;20194;-82
2022/02/11 00:24:08;;;;;;;5.70;3.20;;;3.80;99.90;;;;;;5076829;28;20190;-83
2022/02/11 00:26:37;;;;;;;6.27;3.73;;;3.90;99.90;;;;;;5091315;28;20202;-84
2022/02/11 00:34:18;;;;;;;9.33;3.50;;;3.90;99.90;;;;;;5082187;28;20412;-84
2022/02/11 00:36:53;;;;;;;7.20;3.97;;;3.90;99.90;;;;;;5063334;28;20626;-83
2022/02/11 01:03:51;;;;;;;8.33;3.90;;;3.40;99.90;;;;;;5080513;28;20394;-82
2022/02/11 01:06:13;;;;;;;5.40;4.33;;;3.40;99.90;;;;;;5079192;28;20514;-82
2022/02/11 01:08:40;;;;;;;5.90;3.63;;;3.40;99.90;;;;;;5080092;28;20420;-83
2022/02/11 01:11:10;;;;;;;6.27;4.30;;;3.30;99.90;;;;;;5061536;28;20466;-82
2022/02/11 01:13:36;;;;;;;6.77;3.70;;;3.30;99.90;;;;;;5060727;28;20460;-83
2022/02/11 01:16:07;;;;;;;8.90;4.13;;;3.30;99.90;;;;;;5078858;28;20432;-83
2022/02/11 01:18:33;;;;;;;10.33;3.63;;;3.30;99.90;;;;;;5060820;28;20191;-82
2022/02/11 01:21:04;;;;;;;9.67;5.50;;;3.20;99.90;;;;;;5078948;28;20414;-82
2022/02/11 01:31:13;;;;;;;8.03;5.10;;;3.30;99.90;;;;;;5079893;28;20554;-85
2022/02/11 01:44:22;;;;;;;9.40;5.53;;;3.30;99.90;;;;;;5081088;28;20407;-84
2022/02/11 01:47:14;;;;;;;10.63;5.60;;;3.20;99.90;;;;;;5081070;28;21028;-83
2022/02/11 02:05:54;;;;;;;8.70;5.50;;;3.20;99.90;;;;;;5080267;28;20421;-82
2022/02/11 02:24:30;;;;;;;9.50;6.43;;;3.00;99.90;;;;;;5080900;28;20408;-83
2022/02/11 02:56:53;;;;;;;11.93;6.60;;;3.00;99.90;;;;;;4994172;28;20827;-82
2022/02/11 02:59:41;;;;;;;15.70;8.70;;;2.90;99.90;;;;;;4993459;28;20459;-82
2022/02/11 03:14:28;;;;;;;14.80;7.83;;;3.00;99.90;;;;;;5034379;28;21032;-82
2022/02/11 03:34:52;;;;;;;14.53;8.90;;;3.40;99.90;;;;;;5073700;28;20766;-82
2022/02/11 03:54:17;;;;;;;14.53;7.23;;;3.40;99.90;;;;;;5073022;28;20451;-82
2022/02/11 04:55:29;;;;;;;15.13;6.47;;;3.90;99.90;;;;;;5036294;28;20460;-82
2022/02/11 05:00:39;;;;;;;15.77;6.23;;;3.80;99.90;;;;;;5036206;28;20232;-81
2022/02/11 05:03:05;;;;;;;14.67;6.33;;;3.80;99.90;;;;;;5035818;28;20422;-82
2022/02/11 05:05:48;;;;;;;11.77;7.47;;;3.80;99.90;;;;;;5038465;28;20407;-82
2022/02/11 05:08:16;;;;;;;12.57;7.00;;;3.80;99.90;;;;;;5039781;28;20457;-81
2022/02/11 05:10:41;;;;;;;19.43;7.27;;;3.90;99.90;;;;;;5040198;28;20419;-82
2022/02/11 05:13:07;;;;;;;8.60;5.33;;;4.00;99.90;;;;;;5039806;28;20465;-82
2022/02/11 05:15:32;;;;;;;12.43;5.80;;;4.00;99.90;;;;;;5021682;28;20739;-81
2022/02/11 05:18:00;;;;;;;11.20;6.80;;;4.00;99.90;;;;;;5038937;28;20196;-82
2022/02/11 05:20:25;;;;;;;11.20;7.10;;;4.00;99.90;;;;;;5039104;28;20247;-82
2022/02/11 05:22:51;;;;;;;13.00;6.50;;;4.00;99.90;;;;;;5021401;28;20457;-82
2022/02/11 05:25:16;;;;;;;10.03;6.07;;;4.10;99.90;;;;;;5021004;28;20194;-82
2022/02/11 05:27:42;;;;;;;16.20;6.03;;;4.10;99.90;;;;;;5038677;28;20204;-82
2022/02/11 05:30:08;;;;;;;8.20;5.33;;;4.10;99.90;;;;;;5038864;28;20647;-82
2022/02/11 05:32:34;;;;;;;14.23;6.10;;;4.10;99.90;;;;;;5038558;28;20207;-81
2022/02/11 05:34:59;;;;;;;10.00;5.93;;;4.10;99.90;;;;;;5038925;28;20489;-81
2022/02/11 05:37:25;;;;;;;12.30;5.80;;;4.10;99.90;;;;;;5038344;28;20197;-82
2022/02/11 05:39:50;;;;;;;11.20;5.20;;;4.10;99.90;;;;;;5019843;28;20268;-81
2022/02/11 05:42:16;;;;;;;12.70;5.30;;;4.10;99.90;;;;;;5035872;28;20175;-81
2022/02/11 05:44:41;;;;;;;10.00;5.20;;;3.90;99.90;;;;;;5018514;28;20271;-81
2022/02/11 05:47:07;;;;;;;11.07;5.50;;;4.00;99.90;;;;;;5017641;28;20208;-81
2022/02/11 05:49:33;;;;;;;10.53;5.20;;;4.00;99.90;;;;;;5035789;28;20180;-80
2022/02/11 05:51:58;;;;;;;10.00;5.10;;;4.10;99.90;;;;;;5017829;28;20211;-81
2022/02/11 05:54:24;;;;;;;7.00;4.30;;;4.10;99.90;;;;;;5017762;28;20655;-81
2022/02/11 05:56:49;;;;;;;9.40;5.77;;;4.20;99.90;;;;;;5035315;28;20177;-81
2022/02/11 05:59:16;;;;;;;13.20;5.30;;;4.20;99.90;;;;;;5017581;28;20183;-81
2022/02/11 06:01:42;;;;;;;11.63;5.10;;;4.20;99.90;;;;;;5035502;28;20172;-80
2022/02/11 06:04:08;;;;;;;6.90;4.40;;;4.30;99.90;;;;;;5035133;28;20477;-81
2022/02/11 06:06:33;;;;;;;11.10;5.50;;;4.30;99.90;;;;;;5017316;28;20183;-81
2022/02/11 06:08:59;;;;;;;8.03;4.57;;;4.40;99.90;;;;;;5017306;28;20209;-81
2022/02/11 06:11:29;;;;;;;13.50;4.50;;;4.40;99.90;;;;;;5035190;28;20601;-81
2022/02/11 06:13:58;;;;;;;11.23;5.20;;;4.30;99.90;;;;;;5017331;28;20204;-81
2022/02/11 06:16:24;;;;;;;9.20;4.73;;;4.30;99.90;;;;;;5016372;28;21143;-81
2022/02/11 06:18:49;;;;;;;9.53;5.03;;;4.30;99.90;;;;;;5016941;28;20524;-81
2022/02/11 06:21:15;;;;;;;10.47;4.83;;;4.30;99.90;;;;;;5034743;28;20666;-80
2022/02/11 06:23:41;;;;;;;15.73;5.70;;;4.30;99.90;;;;;;5016941;28;20267;-81
2022/02/11 06:26:07;;;;;;;11.10;5.03;;;4.30;99.90;;;;;;5016824;28;20423;-80
2022/02/11 06:28:32;;;;;;;8.40;4.83;;;4.30;99.90;;;;;;5034584;28;20811;-80
2022/02/11 06:30:58;;;;;;;13.30;4.77;;;4.40;99.90;;;;;;5034409;28;20180;-81
2022/02/11 06:33:24;;;;;;;6.90;5.13;;;4.40;99.90;;;;;;5016736;28;20240;-81
2022/02/11 06:35:49;;;;;;;8.47;5.23;;;4.40;99.90;;;;;;5016603;28;20173;-81
2022/02/11 06:38:17;;;;;;;12.60;5.20;;;4.40;99.90;;;;;;5034166;28;20202;-81
2022/02/11 06:40:43;;;;;;;9.47;5.30;;;4.40;99.90;;;;;;5034420;28;20174;-81
2022/02/11 06:43:09;;;;;;;7.57;5.33;;;4.40;99.90;;;;;;5018855;28;20506;-82
2022/02/11 06:45:34;;;;;;;10.60;5.27;;;4.30;99.90;;;;;;5018436;28;20451;-81
2022/02/11 06:48:00;;;;;;;9.17;4.93;;;4.40;99.90;;;;;;5036167;28;20596;-82
2022/02/11 06:50:26;;;;;;;10.77;5.53;;;4.40;99.90;;;;;;5036508;28;20648;-81
2022/02/11 06:52:55;;;;;;;8.10;5.23;;;4.50;99.90;;;;;;5018151;28;20456;-81
2022/02/11 06:55:24;;;;;;;8.10;4.37;;;4.50;99.90;;;;;;5018330;28;20173;-81
2022/02/11 06:57:50;;;;;;;13.03;4.40;;;4.60;99.90;;;;;;5035612;28;20438;-81
2022/02/11 07:00:17;;;;;;;8.93;4.07;;;4.50;99.90;;;;;;5036104;28;20411;-83
2022/02/11 07:02:43;;;;;;;8.70;3.80;;;4.60;99.90;;;;;;5036003;28;20411;-82
2022/02/11 07:05:09;;;;;;;10.67;4.00;;;4.60;99.90;;;;;;5035969;28;20411;-84
2022/02/11 07:07:35;;;;;;;11.60;4.80;;;4.60;99.90;;;;;;5034978;28;20829;-81
2022/02/11 07:10:01;;;;;;;9.03;4.47;;;4.60;99.90;;;;;;5035719;28;20406;-82
2022/02/11 07:12:27;;;;;;;9.57;4.40;;;4.60;99.90;;;;;;5035314;28;20208;-82
2022/02/11 07:14:52;;;;;;;6.87;3.97;;;4.70;99.90;;;;;;5017400;28;20951;-83
2022/02/11 07:17:18;;;;;;;10.00;3.93;;;4.70;99.90;;;;;;5017125;28;20245;-82
2022/02/11 07:19:44;;;;;;;11.27;4.10;;;4.80;99.90;;;;;;5035457;28;20179;-82
2022/02/11 07:22:09;;;;;;;7.40;4.20;;;4.80;99.90;;;;;;5035345;28;20608;-83
2022/02/11 07:24:35;;;;;;;12.40;4.97;;;4.90;99.90;;;;;;5017332;28;20196;-82
2022/02/11 07:27:00;;;;;;;10.50;4.00;;;4.90;99.90;;;;;;5017385;28;20182;-82
2022/02/11 07:29:26;;;;;;;8.63;3.10;;;4.90;99.90;;;;;;5017275;28;20185;-82
2022/02/11 07:31:51;;;;;;;10.13;4.00;;;5.00;99.90;;;;;;5017292;28;20177;-81
2022/02/11 07:34:17;;;;;;;8.30;3.80;;;5.00;99.90;;;;;;5035124;28;20177;-80
2022/02/11 07:36:43;;;;;;;10.93;3.30;;;5.00;99.90;;;;;;5034470;28;20174;-81
2022/02/11 07:39:09;;;;;;;7.80;3.03;;;5.00;99.90;;;;;;5035015;28;20230;-80
2022/02/11 07:41:35;;;;;;;16.97;3.67;;;5.00;99.90;;;;;;5034543;28;20421;-81
2022/02/11 07:44:00;;;;;;;9.83;3.30;;;5.10;99.90;;;;;;5016967;28;20287;-80
2022/02/11 07:46:28;;;;;;;9.27;3.20;;;5.00;99.90;;;;;;5016662;28;20191;-80
2022/02/11 07:48:54;;;;;;;10.37;3.40;;;5.00;99.90;;;;;;5035217;28;20224;-82
2022/02/11 07:51:20;;;;;;;8.90;3.57;;;4.90;99.90;;;;;;5034085;28;20455;-80
2022/02/11 07:53:45;;;;;;;8.23;3.63;;;4.90;99.90;;;;;;5034617;28;20207;-80
2022/02/11 07:56:12;;;;;;;13.03;3.63;;;5.00;99.90;;;;;;5034467;28;20177;-81
2022/02/11 07:58:38;;;;;;;13.40;4.10;;;5.00;99.90;;;;;;5034528;28;20254;-80
2022/02/11 08:01:04;;;;;;;7.43;3.50;;;5.00;99.90;;;;;;5034481;28;20418;-80
2022/02/11 08:03:30;;;;;;;7.73;3.80;;;5.00;99.90;;;;;;5034389;28;20896;-82
2022/02/11 08:05:56;;;;;;;6.70;3.27;;;5.00;99.90;;;;;;5034191;28;20257;-80
2022/02/11 08:08:26;;;;;;;9.00;4.10;;;5.00;99.90;;;;;;5015648;28;20231;-80
2022/02/11 08:10:52;;;;;;;5.87;3.63;;;5.20;99.90;;;;;;5034015;28;20457;-81
2022/02/11 08:13:18;;;;;;;13.73;3.10;;;5.40;99.90;;;;;;5035016;28;20459;-81
2022/02/11 08:15:44;;;;;;;5.23;2.90;;;5.20;99.90;;;;;;5034316;28;20415;-80
2022/02/11 08:18:09;;;;;;;6.63;2.63;;;5.20;99.90;;;;;;5016342;28;20435;-80
2022/02/11 08:20:35;;;;;;;12.17;3.50;;;5.00;99.90;;;;;;5016422;28;20231;-80
2022/02/11 08:23:00;;;;;;;10.73;3.27;;;4.90;99.90;;;;;;5034144;28;20192;-80
2022/02/11 08:25:26;;;;;;;6.10;3.33;;;4.90;99.90;;;;;;5034236;28;20220;-80
2022/02/11 08:27:54;;;;;;;10.83;3.60;;;5.00;99.90;;;;;;5034121;28;20295;-81
2022/02/11 08:30:19;;;;;;;6.57;4.13;;;5.00;99.90;;;;;;5016489;28;20188;-81
2022/02/11 08:32:45;;;;;;;7.03;3.37;;;5.10;99.90;;;;;;5033895;28;20965;-80
2022/02/11 08:35:11;;;;;;;9.00;3.73;;;5.20;99.90;;;;;;5016053;28;20584;-79
2022/02/11 08:37:36;;;;;;;7.40;3.40;;;5.20;99.90;;;;;;5033418;28;20226;-80
2022/02/11 08:40:03;;;;;;;14.63;3.33;;;5.30;99.90;;;;;;5015304;28;20187;-81
2022/02/11 08:42:28;;;;;;;8.87;4.13;;;5.30;99.90;;;;;;5015775;28;20635;-80
2022/02/11 08:44:54;;;;;;;7.70;3.50;;;5.40;99.90;;;;;;5033390;28;20454;-81
2022/02/11 08:47:20;;;;;;;6.17;3.07;;;5.50;99.90;;;;;;5033143;28;20759;-80
2022/02/11 08:49:45;;;;;;;9.97;3.47;;;5.50;99.90;;;;;;5033712;28;20184;-80
2022/02/11 08:52:11;;;;;;;10.50;3.27;;;5.60;99.90;;;;;;5033722;28;20232;-80
2022/02/11 08:54:37;;;;;;;6.97;3.50;;;5.60;99.90;;;;;;5015429;28;20194;-80
2022/02/11 08:57:03;;;;;;;12.57;3.50;;;5.80;99.90;;;;;;5034935;28;20630;-82
2022/02/11 08:59:28;;;;;;;11.20;4.07;;;6.00;99.90;;;;;;5018622;28;20426;-82
2022/02/11 09:01:54;;;;;;;7.73;3.07;;;6.20;99.90;;;;;;5016149;28;20177;-82
2022/02/11 09:04:19;;;;;;;15.80;3.63;;;6.30;99.90;;;;;;5015669;28;20186;-83
2022/02/11 09:06:46;;;;;;;9.33;3.37;;;6.50;99.90;;;;;;5015355;28;20187;-83
2022/02/11 09:09:13;;;;;;;8.70;3.10;;;6.40;99.90;;;;;;5034432;28;20199;-83
2022/02/11 09:11:39;;;;;;;9.87;2.83;;;6.40;99.90;;;;;;5036594;28;20432;-85
2022/02/11 09:14:06;;;;;;;14.93;3.00;;;6.30;99.90;;;;;;5043638;28;20472;-84
2022/02/11 09:16:33;;;;;;;12.50;2.90;;;6.30;99.90;;;;;;5061571;28;20413;-84
2022/02/11 09:18:58;;;;;;;10.60;4.13;;;6.40;99.90;;;;;;5036735;28;20443;-84
2022/02/11 09:21:25;;;;;;;10.70;2.57;;;6.30;99.90;;;;;;5034664;28;20435;-85
2022/02/11 09:23:50;;;;;;;6.97;2.50;;;6.20;99.90;;;;;;5052638;28;20425;-84
2022/02/11 09:26:16;;;;;;;5.87;2.83;;;6.00;99.90;;;;;;5034669;28;20431;-84
2022/02/11 09:28:42;;;;;;;10.20;3.37;;;5.90;99.90;;;;;;5034291;28;20232;-84
2022/02/11 09:31:08;;;;;;;7.83;2.73;;;6.00;99.90;;;;;;5037319;28;20206;-83
2022/02/11 09:33:34;;;;;;;6.73;2.23;;;6.20;99.90;;;;;;5039041;28;20590;-83
2022/02/11 09:35:59;;;;;;;12.03;2.37;;;6.60;99.90;;;;;;5039546;28;20423;-83
2022/02/11 09:38:25;;;;;;;7.10;3.10;;;6.90;99.90;;;;;;5039780;28;20532;-84
2022/02/11 09:40:53;;;;;;;11.20;2.60;;;7.00;99.90;;;;;;5057418;28;20631;-83
2022/02/11 09:43:22;;;;;;;8.10;2.60;;;7.10;99.90;;;;;;5038363;28;20191;-83
2022/02/11 09:45:49;;;;;;;11.43;2.47;;;7.50;99.90;;;;;;5039623;28;20472;-82
2022/02/11 09:48:15;;;;;;;9.20;3.37;;;7.60;99.90;;;;;;5040546;28;20454;-83
2022/02/11 09:50:41;;;;;;;8.10;1.97;;;7.40;99.90;;;;;;5059215;28;20457;-83
2022/02/11 09:53:07;;;;;;;6.80;2.00;;;7.30;99.90;;;;;;5043929;28;20211;-83
2022/02/11 09:55:40;;;;;;;8.57;2.63;;;7.40;99.90;;;;;;5043843;28;20417;-83
2022/02/11 09:58:09;;;;;;;15.20;2.60;;;7.50;99.90;;;;;;5042456;28;20448;-83
2022/02/11 10:00:38;;;;;;;5.20;2.10;;;7.60;99.90;;;;;;5041494;28;20419;-83
2022/02/11 10:03:14;;;;;;;5.50;2.20;;;7.60;99.90;;;;;;5043795;28;20479;-83
2022/02/11 10:05:40;;;;;;;7.53;2.40;;;7.70;99.90;;;;;;5061689;28;20485;-82
2022/02/11 10:08:06;;;;;;;9.80;2.70;;;7.80;99.90;;;;;;5088037;23;20541;-81
2022/02/11 10:10:38;;;;;;;7.70;2.03;;;7.70;99.90;;;;;;5073356;28;20171;-81
2022/02/11 10:13:12;;;;;;;13.77;3.00;;;7.60;99.90;;;;;;5069510;28;20298;-82
2022/02/11 10:15:43;;;;;;;5.97;2.40;;;7.70;99.90;;;;;;5053215;28;20422;-82
2022/02/11 10:18:09;;;;;;;7.83;2.80;;;7.40;99.90;;;;;;5054260;28;20978;-81
2022/02/11 10:20:37;;;;;;;6.40;1.90;;;7.60;99.90;;;;;;5054546;28;20413;-80
2022/02/11 10:23:24;;;;;;;6.10;2.63;;;7.70;99.90;;;;;;5054555;28;20756;-81
2022/02/11 10:26:10;;;;;;;10.80;2.63;;;7.80;99.90;;;;;;5054422;28;20485;-81
2022/02/11 10:28:42;;;;;;;15.63;3.13;;;7.70;99.90;;;;;;5054143;28;20442;-80
2022/02/11 10:31:15;;;;;;;6.30;2.33;;;7.80;99.90;;;;;;5051765;28;20849;-82
2022/02/11 10:33:56;;;;;;;9.50;2.47;;;7.70;99.90;;;;;;5052937;28;20822;-81
2022/02/11 10:36:38;;;;;;;4.83;2.07;;;7.90;99.90;;;;;;5052324;28;20998;-81
2022/02/11 10:39:15;;;;;;;7.87;2.30;;;8.10;99.90;;;;;;5054234;28;20438;-81
2022/02/11 10:41:45;;;;;;;17.03;2.80;;;8.10;99.90;;;;;;5053614;28;20405;-81
2022/02/11 10:44:14;;;;;;;9.23;2.80;;;8.10;99.90;;;;;;5072855;28;20447;-81
2022/02/11 10:46:47;;;;;;;8.20;2.20;;;7.80;99.90;;;;;;5071863;28;20406;-81
2022/02/11 10:49:15;;;;;;;5.50;2.70;;;8.00;99.90;;;;;;5072266;28;20441;-82
2022/02/11 10:51:43;;;;;;;7.20;2.77;;;8.00;99.90;;;;;;5073482;28;20781;-82
2022/02/11 10:54:22;;;;;;;3.80;1.40;;;8.00;99.90;;;;;;5073711;28;20548;-82
2022/02/11 10:56:50;;;;;;;6.73;2.30;;;8.00;99.90;;;;;;5078175;28;20441;-82
2022/02/11 10:59:27;;;;;;;3.50;1.70;;;8.10;99.90;;;;;;5079515;28;21097;-81
2022/02/11 11:01:55;;;;;;;9.53;2.60;;;8.30;99.90;;;;;;5077573;28;20456;-82
2022/02/11 11:04:21;;;;;;;7.57;2.30;;;8.20;99.90;;;;;;5080078;28;20413;-82
2022/02/11 11:06:47;;;;;;;10.63;1.83;;;8.30;99.90;;;;;;5077826;28;20771;-82
2022/02/11 11:09:15;;;;;;;7.53;2.23;;;8.60;99.90;;;;;;5078760;28;20210;-82
2022/02/11 11:11:45;;;;;;;11.73;4.53;;;8.50;99.90;;;;;;5079118;28;20493;-82
2022/02/11 11:14:19;;;;;;;8.47;2.17;;;8.50;99.90;;;;;;5077508;28;20422;-82
2022/02/11 11:16:51;;;;;;;8.20;2.60;;;8.50;99.90;;;;;;5077972;28;20398;-83
2022/02/11 11:19:18;;;;;;;9.67;2.27;;;8.60;99.90;;;;;;5077748;28;20456;-83
2022/02/11 11:21:48;;;;;;;7.70;2.70;;;8.30;99.90;;;;;;5077688;28;20439;-82
2022/02/11 11:24:15;;;;;;;11.00;2.27;;;8.00;99.90;;;;;;5077980;28;20420;-82
2022/02/11 11:26:55;;;;;;;6.27;2.13;;;7.80;99.90;;;;;;5077192;28;20409;-82
2022/02/11 11:29:20;;;;;;;7.83;2.63;;;7.50;99.90;;;;;;5077887;28;20425;-82
2022/02/11 11:31:56;;;;;;;10.47;2.17;;;7.40;99.90;;;;;;5077306;28;20801;-83
2022/02/11 11:34:22;;;;;;;13.07;2.43;;;7.60;99.90;;;;;;5077712;28;20170;-82
2022/02/11 11:36:50;;;;;;;15.40;3.43;;;7.60;99.90;;;;;;5077277;28;20420;-83
2022/02/11 11:39:18;;;;;;;11.23;2.50;;;7.60;99.90;;;;;;5076778;28;20481;-82
2022/02/11 11:42:08;;;;;;;7.70;2.00;;;8.90;99.90;;;;;;5076478;28;20409;-82
2022/02/11 11:44:53;;;;;;;6.23;1.63;;;8.90;99.90;;;;;;5076917;28;20785;-82
2022/02/11 11:47:32;;;;;;;6.93;1.90;;;8.70;99.90;;;;;;5076321;28;20406;-83
2022/02/11 11:49:58;;;;;;;7.13;2.33;;;8.40;99.90;;;;;;5076143;28;20969;-82
2022/02/11 11:52:37;;;;;;;8.63;2.20;;;8.20;99.90;;;;;;5074306;28;20449;-83
2022/02/11 11:55:23;;;;;;;7.13;2.07;;;9.40;99.90;;;;;;5075925;28;20229;-82
2022/02/11 11:57:51;;;;;;;7.07;2.13;;;11.20;99.90;;;;;;5074653;28;20437;-82
2022/02/11 12:00:36;;;;;;;8.30;2.43;;;10.70;99.90;;;;;;5071193;28;20521;-82
2022/02/11 12:03:02;;;;;;;7.60;2.10;;;9.70;99.90;;;;;;5054843;28;20414;-82
2022/02/11 12:05:53;;;;;;;9.50;2.47;;;9.00;99.90;;;;;;5075084;28;20423;-82
2022/02/11 12:08:21;;;;;;;8.00;1.97;;;9.00;99.90;;;;;;5072930;28;20314;-82
2022/02/11 12:10:48;;;;;;;11.57;2.67;;;9.50;99.90;;;;;;5075140;28;20930;-82
2022/02/11 12:13:16;;;;;;;9.13;2.10;;;10.50;99.90;;;;;;5074913;28;20464;-82
2022/02/11 12:15:42;;;;;;;7.93;2.90;;;11.90;99.90;;;;;;5073819;28;20474;-82
2022/02/11 12:18:07;;;;;;;7.07;2.30;;;13.90;99.90;;;;;;5074516;28;20425;-82
2022/02/11 12:20:33;;;;;;;7.03;1.90;;;14.70;99.50;;;;;;5074491;28;20409;-82
2022/02/11 12:28:30;;;;;;;4.67;2.60;;;16.30;66.10;;;;;;5074844;28;20898;-82
2022/02/11 12:30:55;;;;;;;5.67;1.57;;;14.50;64.20;;;;;;5073831;28;20413;-83
2022/02/11 12:33:21;;;;;;;5.63;1.60;;;13.30;67.50;;;;;;5073181;28;20467;-83
2022/02/11 12:35:50;;;;;;;4.63;1.87;;;13.30;72.60;;;;;;5074601;28;20278;-82
2022/02/11 12:38:15;;;;;;;8.20;2.40;;;12.80;74.60;;;;;;5072205;28;20444;-83
2022/02/11 12:40:44;;;;;;;10.23;2.50;;;12.80;79.40;;;;;;5073904;28;20402;-83
2022/02/11 12:43:11;;;;;;;9.80;2.93;;;12.70;84.60;;;;;;5072880;28;20554;-82
2022/02/11 12:45:38;;;;;;;9.40;1.93;;;11.80;90.50;;;;;;5072430;28;20504;-83
2022/02/11 12:48:09;;;;;;;5.73;1.90;;;11.50;92.70;;;;;;5072181;28;20441;-82
2022/02/11 12:50:38;;;;;;;5.97;1.83;;;11.20;92.60;;;;;;5072302;28;20488;-83
2022/02/11 12:53:06;;;;;;;5.70;2.10;;;10.90;92.70;;;;;;5072376;28;20465;-83
2022/02/11 12:55:36;;;;;;;5.83;1.80;;;10.50;94.10;;;;;;5073653;28;20441;-82
2022/02/11 12:58:03;;;;;;;6.80;2.10;;;10.80;96.60;;;;;;5073391;28;20434;-82
2022/02/11 13:00:31;;;;;;;3.53;1.67;;;11.00;94.50;;;;;;5070244;28;20417;-82
2022/02/11 13:02:58;;;;;;;9.93;1.83;;;11.90;94.70;;;;;;5071505;28;20413;-82
2022/02/11 13:05:39;;;;;;;6.20;2.03;;;13.80;86.00;;;;;;5071321;28;20405;-80
2022/02/11 13:08:07;;;;;;;3.20;1.40;;;15.20;70.70;;;;;;5071211;28;20454;-81
2022/02/11 13:10:36;;;;;;;9.00;2.07;;;16.00;63.70;;;;;;5070230;28;20417;-81
2022/02/11 13:13:06;;;;;;;7.47;1.73;;;16.60;60.00;;;;;;5070170;28;20460;-80
2022/02/11 13:15:34;;;;;;;7.97;1.80;;;16.50;58.50;;;;;;5070882;28;20409;-83
2022/02/11 13:18:09;;;;;;;7.30;2.10;;;16.90;59.80;;;;;;5069898;28;20523;-82
2022/02/11 13:20:44;;;;;;;8.47;1.60;;;17.80;57.90;;;;;;5069927;28;20820;-82
2022/02/11 13:23:15;;;;;;;4.17;2.03;;;18.60;55.10;;;;;;5071554;28;20447;-82
2022/02/11 13:25:42;;;;;;;6.17;2.93;;;18.30;51.50;;;;;;5072202;28;20932;-82
2022/02/11 13:28:17;;;;;;;4.03;1.53;;;17.70;51.70;;;;;;5075068;28;20523;-82
2022/02/11 13:30:47;;;;;;;5.27;1.83;;;17.40;51.50;;;;;;5074825;28;20416;-81
2022/02/11 13:33:27;;;;;;;7.57;2.20;;;16.70;51.90;;;;;;5075208;28;20966;-81
2022/02/11 13:35:56;;;;;;;4.17;1.33;;;15.90;53.10;;;;;;5074765;28;20471;-81
2022/02/11 13:38:30;;;;;;;7.20;1.97;;;15.50;52.70;;;;;;5073304;28;20490;-81
2022/02/11 13:41:10;;;;;;;7.30;2.13;;;15.30;54.10;;;;;;5073329;28;20416;-82
2022/02/11 13:43:54;;;;;;;4.60;1.87;;;14.30;54.10;;;;;;5073748;28;20420;-82
2022/02/11 13:46:31;;;;;;;7.00;1.80;;;12.90;57.10;;;;;;5073257;28;20447;-82
2022/02/11 13:49:02;;;;;;;6.87;2.47;;;11.40;58.30;;;;;;5075083;28;20987;-81
2022/02/11 13:51:28;;;;;;;8.60;1.90;;;11.00;67.10;;;;;;5074325;28;20419;-81
2022/02/11 13:53:54;;;;;;;4.00;1.80;;;10.60;74.10;;;;;;5074825;28;20463;-82
2022/02/11 13:56:40;;;;;;;5.43;1.70;;;10.10;80.50;;;;;;5073265;28;20175;-82
2022/02/11 13:59:11;;;;;;;7.30;2.00;;;9.90;89.40;;;;;;5074110;28;20215;-81
2022/02/11 14:01:38;;;;;;;4.20;1.93;;;9.70;92.80;;;;;;5074504;28;20421;-81
2022/02/11 14:04:05;;;;;;;6.23;1.80;;;9.60;94.60;;;;;;5074383;28;20424;-81
2022/02/11 14:06:36;;;;;;;7.23;1.90;;;9.30;95.10;;;;;;5072808;28;20786;-82
2022/02/11 14:09:04;;;;;;;5.87;1.60;;;9.40;94.20;;;;;;5074492;28;20463;-81
2022/02/11 14:11:34;;;;;;;3.33;1.37;;;9.30;86.90;;;;;;5074332;28;20418;-81
2022/02/11 14:14:17;;;;;;;5.37;2.07;;;9.40;79.20;;;;;;5074152;28;20445;-82
2022/02/11 14:16:45;;;;;;;2.80;1.50;;;9.40;82.70;;;;;;5073629;28;20398;-82
2022/02/11 14:19:14;;;;;;;4.43;1.50;;;9.50;88.20;;;;;;5060132;28;21007;-82
2022/02/11 14:21:41;;;;;;;4.00;2.27;;;9.40;78.30;;;;;;5058128;28;20413;-83
2022/02/11 14:24:08;;;;;;;8.17;1.70;;;9.40;79.80;;;;;;5072154;28;20462;-82
2022/02/11 14:26:34;;;;;;;4.43;1.70;;;9.10;82.00;;;;;;5072949;28;20437;-83
2022/02/11 14:28:59;;;;;;;4.30;1.60;;;9.10;85.90;;;;;;5073336;28;20457;-83
2022/02/11 14:31:25;;;;;;;5.63;1.57;;;9.10;84.40;;;;;;5066077;28;20681;-82
2022/02/11 14:33:51;;;;;;;3.77;1.60;;;9.30;86.40;;;;;;5074023;28;20666;-82
2022/02/11 14:36:17;;;;;;;6.53;1.60;;;9.50;83.50;;;;;;5073637;28;20235;-83
2022/02/11 14:38:42;;;;;;;5.70;2.00;;;9.50;80.50;;;;;;5073106;28;20428;-83
2022/02/11 14:43:52;;;;;;;3.80;1.57;;;9.10;83.90;;;;;;5074716;28;20228;-83
2022/02/11 14:46:18;;;;;;;5.10;1.60;;;9.10;90.30;;;;;;5073720;28;20413;-83
2022/02/11 14:48:43;;;;;;;4.63;1.47;;;9.10;90.30;;;;;;5070856;28;20236;-82
2022/02/11 14:51:09;;;;;;;5.43;1.43;;;9.10;91.60;;;;;;5053472;28;20689;-84
2022/02/11 14:53:35;;;;;;;3.63;1.53;;;9.00;90.70;;;;;;5055334;28;20199;-82
2022/02/11 14:56:01;;;;;;;5.10;1.30;;;9.00;87.70;;;;;;5053868;28;20778;-82
2022/02/11 14:58:26;;;;;;;5.67;1.70;;;9.00;89.60;;;;;;5053814;28;20198;-81
2022/02/11 15:00:52;;;;;;;5.70;1.70;;;9.00;89.80;;;;;;5065548;28;20183;-82
2022/02/11 15:03:18;;;;;;;5.40;1.90;;;9.10;91.50;;;;;;5063152;28;20193;-81
2022/02/11 15:05:44;;;;;;;4.00;1.93;;;9.10;90.30;;;;;;5062705;28;20406;-82
2022/02/11 15:08:09;;;;;;;6.03;1.77;;;9.20;92.30;;;;;;5067817;28;20210;-83
2022/02/11 15:10:36;;;;;;;6.03;2.07;;;9.20;91.10;;;;;;5072033;28;20266;-82
2022/02/11 15:13:08;;;;;;;3.13;1.50;;;9.20;93.00;;;;;;5071916;28;20232;-83
2022/02/11 15:15:37;;;;;;;12.13;1.80;;;9.10;94.30;;;;;;5072848;28;20473;-83
2022/02/11 15:18:05;;;;;;;7.23;2.40;;;9.00;94.00;;;;;;5072015;28;20533;-83
2022/02/11 15:20:32;;;;;;;8.70;2.23;;;8.90;92.90;;;;;;5071848;28;20936;-82
2022/02/11 15:22:57;;;;;;;4.13;2.13;;;8.70;93.90;;;;;;5073259;28;20421;-83
2022/02/11 15:25:23;;;;;;;7.20;2.30;;;8.60;98.00;;;;;;5071524;28;20421;-83
2022/02/11 15:27:48;;;;;;;5.47;1.80;;;8.50;97.90;;;;;;5070226;28;20281;-82
2022/02/11 15:30:14;;;;;;;5.00;1.70;;;8.40;95.10;;;;;;5056137;28;20196;-82
2022/02/11 15:32:41;;;;;;;8.87;2.03;;;8.20;96.30;;;;;;5072885;28;20198;-82
2022/02/11 15:35:07;;;;;;;4.40;1.40;;;8.00;97.40;;;;;;5072528;28;20221;-82
2022/02/11 15:37:33;;;;;;;4.80;2.13;;;7.90;96.90;;;;;;5067739;28;20430;-83
2022/02/11 15:39:58;;;;;;;4.43;1.30;;;7.70;98.60;;;;;;5051070;28;20175;-83
2022/02/11 15:42:24;;;;;;;5.77;1.40;;;7.50;99.50;;;;;;5062585;28;20663;-83
2022/02/11 15:44:50;;;;;;;3.63;1.60;;;7.50;99.90;;;;;;5071329;28;20178;-84
2022/02/11 15:47:15;;;;;;;3.10;1.07;;;7.40;99.90;;;;;;5070955;28;20428;-83
2022/02/11 15:49:41;;;;;;;6.50;1.90;;;7.30;99.90;;;;;;5070209;28;20255;-84
2022/02/11 15:52:07;;;;;;;5.10;1.20;;;7.30;99.90;;;;;;5070879;28;20183;-83
2022/02/11 15:54:33;;;;;;;8.10;2.20;;;7.20;99.90;;;;;;5071155;28;20181;-82
2022/02/11 15:56:59;;;;;;;4.00;1.60;;;7.10;99.90;;;;;;5070877;28;20436;-83
2022/02/11 15:59:24;;;;;;;4.33;1.40;;;7.10;99.90;;;;;;5072282;28;20429;-83
2022/02/11 16:01:51;;;;;;;3.87;2.13;;;7.00;99.90;;;;;;5070926;28;20175;-83
2022/02/11 16:04:17;;;;;;;4.60;1.40;;;6.90;99.90;;;;;;5072221;28;20652;-83
2022/02/11 16:06:43;;;;;;;4.80;1.60;;;7.00;99.90;;;;;;5070438;28;20444;-83
2022/02/11 16:09:09;;;;;;;4.63;1.73;;;7.00;99.90;;;;;;5070872;28;20524;-83
2022/02/11 16:11:35;;;;;;;4.17;1.77;;;7.00;99.90;;;;;;5070745;28;20418;-84
2022/02/11 16:14:01;;;;;;;6.13;1.53;;;7.10;99.90;;;;;;5070734;28;20198;-83
2022/02/11 16:16:26;;;;;;;5.00;2.33;;;7.10;99.90;;;;;;5070305;28;20444;-82
2022/02/11 16:18:52;;;;;;;6.17;1.60;;;7.10;99.90;;;;;;5071970;28;20191;-83
2022/02/11 16:21:17;;;;;;;6.43;2.20;;;7.10;99.90;;;;;;5068057;28;20208;-83
2022/02/11 16:23:43;;;;;;;6.10;1.60;;;7.00;99.90;;;;;;5072165;28;20178;-83
2022/02/11 16:26:10;;;;;;;7.20;1.97;;;7.00;99.90;;;;;;5071702;28;20280;-83
2022/02/11 16:28:36;;;;;;;5.33;2.63;;;7.00;99.90;;;;;;5071551;28;20199;-83
2022/02/11 16:31:35;;;;;;;6.30;2.20;;;7.00;99.90;;;;;;5065829;28;20426;-83
2022/02/11 16:34:02;;;;;;;6.80;3.10;;;7.10;99.90;;;;;;5027833;28;20476;-83
2022/02/11 16:36:28;;;;;;;7.60;2.63;;;7.10;99.90;;;;;;5070428;28;20516;-83
2022/02/11 16:38:54;;;;;;;7.60;2.50;;;7.10;99.90;;;;;;5072108;28;20455;-82
2022/02/11 16:41:21;;;;;;;8.37;3.13;;;7.10;99.90;;;;;;5070521;28;20955;-83
2022/02/11 16:43:47;;;;;;;8.37;3.13;;;7.20;99.90;;;;;;5072061;28;20488;-83
2022/02/11 16:46:14;;;;;;;5.00;2.53;;;7.20;99.90;;;;;;5071550;28;20501;-83
2022/02/11 16:48:40;;;;;;;7.43;2.73;;;7.20;99.90;;;;;;5071644;28;20947;-83
2022/02/11 16:51:05;;;;;;;6.10;1.70;;;7.10;99.90;;;;;;5070712;28;20421;-83